createdAt,value
2017-07-03T00:00:58.708Z,22.45
2017-07-03T00:02:09.054Z,22.49
2017-07-03T00:03:19.403Z,22.49
2017-07-03T00:04:29.745Z,22.41
2017-07-03T00:05:40.087Z,22.45
2017-07-03T00:06:50.446Z,22.51
2017-07-03T00:08:00.789Z,22.45
2017-07-03T00:09:11.136Z,22.38
2017-07-03T00:10:21.485Z,22.42
2017-07-03T00:11:31.833Z,22.44
2017-07-03T00:12:42.190Z,22.46
2017-07-03T00:13:52.555Z,22.31
2017-07-03T00:15:02.897Z,22.33
2017-07-03T00:16:13.255Z,22.39
2017-07-03T00:17:23.287Z,22.36
2017-07-03T00:18:33.014Z,22.33
2017-07-03T00:19:43.056Z,22.29
2017-07-03T00:20:53.722Z,22.36
2017-07-03T00:22:03.762Z,22.33
2017-07-03T00:23:14.105Z,22.29
2017-07-03T00:24:24.146Z,22.29
2017-07-03T00:25:34.513Z,22.29
2017-07-03T00:26:44.664Z,22.27
2017-07-03T00:27:54.707Z,22.26
2017-07-03T00:29:04.761Z,22.26
2017-07-03T00:30:15.117Z,22.27
2017-07-03T00:31:25.457Z,22.26
2017-07-03T00:32:35.858Z,22.24
2017-07-03T00:33:46.218Z,22.18
2017-07-03T00:34:56.589Z,22.26
2017-07-03T00:36:06.634Z,22.27
2017-07-03T00:37:16.981Z,22.27
2017-07-03T00:38:27.386Z,22.18
2017-07-03T00:39:37.728Z,22.23
2017-07-03T00:40:48.074Z,22.29
2017-07-03T00:41:58.423Z,22.27
2017-07-03T00:43:08.776Z,22.23
2017-07-03T00:44:19.117Z,22.16
2017-07-03T00:45:29.468Z,22.29
2017-07-03T00:46:39.486Z,22.23
2017-07-03T00:47:49.525Z,22.27
2017-07-03T00:48:59.262Z,22.27
2017-07-03T00:50:09.620Z,22.3
2017-07-03T00:51:19.981Z,22.16
2017-07-03T00:52:30.022Z,22.2
2017-07-03T00:53:40.382Z,22.27
2017-07-03T00:54:50.738Z,22.29
2017-07-03T00:56:00.824Z,22.29
2017-07-03T00:57:11.172Z,22.27
2017-07-03T00:58:21.516Z,22.33
2017-07-03T00:59:31.551Z,22.41
2017-07-03T01:00:41.892Z,22.36
2017-07-03T01:01:52.298Z,22.29
2017-07-03T01:03:02.333Z,22.33
2017-07-03T01:04:12.682Z,22.36
2017-07-03T01:05:23.040Z,22.31
2017-07-03T01:06:33.079Z,22.39
2017-07-03T01:07:43.624Z,22.38
2017-07-03T01:08:53.978Z,22.39
2017-07-03T01:10:04.044Z,22.41
2017-07-03T01:11:14.097Z,22.33
2017-07-03T01:12:24.445Z,22.39
2017-07-03T01:13:34.820Z,22.36
2017-07-03T01:14:45.174Z,22.3
2017-07-03T01:15:55.526Z,22.38
2017-07-03T01:17:05.562Z,22.41
2017-07-03T01:18:15.593Z,22.44
2017-07-03T01:19:26.001Z,22.39
2017-07-03T01:20:36.357Z,22.33
2017-07-03T01:21:46.708Z,22.31
2017-07-03T01:22:57.057Z,22.39
2017-07-03T01:24:07.403Z,22.29
2017-07-03T01:25:17.813Z,22.45
2017-07-03T01:26:27.838Z,22.46
2017-07-03T01:27:38.177Z,22.38
2017-07-03T01:28:48.545Z,22.42
2017-07-03T01:29:58.892Z,22.39
2017-07-03T01:31:08.974Z,22.38
2017-07-03T01:32:19.025Z,22.33
2017-07-03T01:33:28.757Z,22.34
2017-07-03T01:34:38.481Z,22.3
2017-07-03T01:35:48.837Z,22.18
2017-07-03T01:36:59.231Z,22.16
2017-07-03T01:38:09.570Z,22.18
2017-07-03T01:39:19.905Z,22.26
2017-07-03T01:40:30.261Z,22.26
2017-07-03T01:41:40.624Z,22.27
2017-07-03T01:42:50.683Z,22.23
2017-07-03T01:44:01.042Z,22.26
2017-07-03T01:45:11.393Z,22.26
2017-07-03T01:46:21.761Z,22.22
2017-07-03T01:47:31.783Z,22.14
2017-07-03T01:48:42.189Z,22.2
2017-07-03T01:49:52.555Z,22.16
2017-07-03T01:51:02.581Z,22.18
2017-07-03T01:52:12.615Z,22.09
2017-07-03T01:53:22.958Z,22.15
2017-07-03T01:54:33.317Z,22.16
2017-07-03T01:55:43.355Z,22.16
2017-07-03T01:56:53.687Z,22.18
2017-07-03T01:58:04.032Z,22.12
2017-07-03T01:59:13.755Z,22.2
2017-07-03T02:00:24.158Z,22.16
2017-07-03T02:01:34.193Z,22.14
2017-07-03T02:02:44.545Z,22.2
2017-07-03T02:03:54.582Z,22.23
2017-07-03T02:05:04.953Z,22.18
2017-07-03T02:06:15.312Z,22.15
2017-07-03T02:07:25.335Z,22.16
2017-07-03T02:08:35.379Z,22.2
2017-07-03T02:09:45.405Z,22.14
2017-07-03T02:10:55.757Z,22.12
2017-07-03T02:12:06.100Z,22.2
2017-07-03T02:13:16.459Z,22.2
2017-07-03T02:14:26.840Z,22.12
2017-07-03T02:15:37.191Z,22.16
2017-07-03T02:16:47.548Z,22.16
2017-07-03T02:17:57.917Z,22.2
2017-07-03T02:19:08.301Z,22.16
2017-07-03T02:20:18.640Z,22.23
2017-07-03T02:21:28.990Z,22.15
2017-07-03T02:22:39.327Z,22.15
2017-07-03T02:23:49.418Z,22.16
2017-07-03T02:24:59.767Z,22.16
2017-07-03T02:26:10.104Z,22.12
2017-07-03T02:27:20.142Z,22.12
2017-07-03T02:28:30.518Z,22.14
2017-07-03T02:29:40.925Z,21.97
2017-07-03T02:30:51.273Z,21.97
2017-07-03T02:32:01.628Z,21.99
2017-07-03T02:33:11.662Z,21.99
2017-07-03T02:34:22.068Z,22.07
2017-07-03T02:35:32.100Z,22.04
2017-07-03T02:36:42.146Z,22.04
2017-07-03T02:37:52.483Z,22
2017-07-03T02:39:02.842Z,21.99
2017-07-03T02:40:13.187Z,22.02
2017-07-03T02:41:23.540Z,21.99
2017-07-03T02:42:33.897Z,21.9
2017-07-03T02:43:44.247Z,21.86
2017-07-03T02:44:54.610Z,21.86
2017-07-03T02:46:04.650Z,21.86
2017-07-03T02:47:14.747Z,21.94
2017-07-03T02:48:25.100Z,21.94
2017-07-03T02:49:35.461Z,21.9
2017-07-03T02:50:45.837Z,21.97
2017-07-03T02:51:55.939Z,22
2017-07-03T02:53:06.284Z,21.94
2017-07-03T02:54:16.312Z,21.99
2017-07-03T02:55:26.660Z,21.92
2017-07-03T02:56:37.001Z,21.82
2017-07-03T02:57:47.043Z,21.9
2017-07-03T02:58:57.399Z,21.85
2017-07-03T03:00:07.431Z,21.78
2017-07-03T03:01:17.478Z,21.8
2017-07-03T03:33:13.848Z,19.64
2017-07-03T03:34:23.879Z,19.5
2017-07-03T03:35:34.211Z,19.64
2017-07-03T03:36:44.570Z,19.64
2017-07-03T03:37:54.908Z,19.63
2017-07-03T03:39:05.256Z,19.74
2017-07-03T03:40:15.286Z,19.82
2017-07-03T03:41:25.317Z,20.07
2017-07-03T03:42:35.655Z,20.1
2017-07-03T03:43:45.998Z,20.2
2017-07-03T03:44:56.342Z,20.35
2017-07-03T03:46:06.705Z,20.42
2017-07-03T03:47:17.073Z,20.42
2017-07-03T03:48:27.430Z,20.44
2017-07-03T03:49:37.777Z,20.42
2017-07-03T03:50:47.808Z,20.46
2017-07-03T03:51:57.852Z,20.4
2017-07-03T03:53:08.202Z,20.44
2017-07-03T03:54:18.234Z,20.51
2017-07-03T03:55:28.608Z,20.44
2017-07-03T03:56:38.952Z,20.49
2017-07-03T03:57:49.314Z,20.6
2017-07-03T03:58:59.656Z,20.61
2017-07-03T04:00:10.033Z,20.67
2017-07-03T04:01:20.390Z,20.75
2017-07-03T04:02:30.797Z,20.79
2017-07-03T04:03:41.147Z,20.78
2017-07-03T04:04:51.488Z,20.81
2017-07-03T04:06:01.524Z,20.81
2017-07-03T04:07:11.887Z,20.81
2017-07-03T04:08:21.652Z,20.88
2017-07-03T04:09:32.013Z,20.94
2017-07-03T04:10:42.056Z,20.96
2017-07-03T04:11:52.413Z,20.98
2017-07-03T04:13:02.446Z,20.94
2017-07-03T04:14:12.852Z,20.81
2017-07-03T04:15:23.206Z,20.76
2017-07-03T04:16:33.557Z,20.6
2017-07-03T04:17:43.598Z,20.46
2017-07-03T04:18:53.945Z,20.35
2017-07-03T04:20:04.299Z,20.4
2017-07-03T04:21:14.648Z,20.23
2017-07-03T04:22:24.991Z,20.15
2017-07-03T04:23:35.349Z,20.05
2017-07-03T04:24:45.690Z,19.98
2017-07-03T04:25:56.040Z,20.08
2017-07-03T04:27:06.387Z,20.02
2017-07-03T04:28:16.422Z,20.04
2017-07-03T04:29:26.790Z,20.07
2017-07-03T04:30:36.809Z,20.02
2017-07-03T04:31:47.151Z,20.04
2017-07-03T04:32:57.188Z,19.98
2017-07-03T04:34:07.543Z,20.01
2017-07-03T04:35:17.578Z,20.05
2017-07-03T04:36:27.611Z,20
2017-07-03T04:37:37.657Z,20.02
2017-07-03T04:38:47.707Z,19.93
2017-07-03T04:39:57.455Z,19.82
2017-07-03T04:41:07.824Z,19.72
2017-07-03T04:42:18.170Z,19.8
2017-07-03T04:43:28.513Z,19.82
2017-07-03T04:44:38.863Z,19.65
2017-07-03T04:45:48.336Z,19.74
2017-07-03T04:46:58.678Z,19.74
2017-07-03T04:48:08.396Z,19.64
2017-07-03T04:49:18.422Z,19.6
2017-07-03T04:50:28.779Z,19.65
2017-07-03T04:51:39.191Z,19.61
2017-07-03T04:52:49.237Z,19.6
2017-07-03T04:53:59.599Z,19.64
2017-07-03T04:55:09.955Z,19.72
2017-07-03T04:56:19.977Z,19.72
2017-07-03T04:57:30.374Z,19.72
2017-07-03T04:58:40.716Z,19.78
2017-07-03T04:59:50.758Z,19.74
2017-07-03T05:01:01.114Z,19.79
2017-07-03T05:02:11.160Z,19.75
2017-07-03T05:03:21.192Z,19.95
2017-07-03T05:04:31.690Z,19.97
2017-07-03T05:05:42.017Z,20.01
2017-07-03T05:06:52.368Z,19.98
2017-07-03T05:08:02.725Z,20.11
2017-07-03T05:09:13.066Z,20.12
2017-07-03T05:10:23.127Z,20.11
2017-07-03T05:11:33.226Z,20.16
2017-07-03T05:12:43.277Z,20.27
2017-07-03T05:13:53.321Z,20.37
2017-07-03T05:15:03.720Z,20.48
2017-07-03T05:16:13.789Z,20.53
2017-07-03T05:17:24.143Z,20.71
2017-07-03T05:18:34.185Z,20.68
2017-07-03T05:19:44.520Z,20.82
2017-07-03T05:20:54.921Z,20.86
2017-07-03T05:22:04.645Z,21.01
2017-07-03T05:23:14.986Z,21.21
2017-07-03T05:24:24.701Z,21.3
2017-07-03T05:25:34.746Z,21.56
2017-07-03T05:26:45.086Z,21.76
2017-07-03T05:27:55.105Z,22.07
2017-07-03T05:29:04.824Z,22.24
2017-07-03T05:30:14.543Z,22.49
2017-07-03T05:31:24.910Z,22.78
2017-07-03T05:32:35.252Z,22.99
2017-07-03T05:33:45.594Z,23.55
2017-07-03T05:34:55.952Z,23.92
2017-07-03T05:36:06.319Z,24.21
2017-07-03T05:37:16.352Z,24.04
2017-07-03T05:38:26.759Z,23.93
2017-07-03T05:39:37.102Z,23.93
2017-07-03T05:40:47.460Z,23.96
2017-07-03T05:41:57.800Z,23.94
2017-07-03T05:43:08.143Z,24.14
2017-07-03T05:44:18.530Z,24.3
2017-07-03T05:45:28.557Z,24.49
2017-07-03T05:46:38.916Z,25.08
2017-07-03T05:47:49.257Z,25.42
2017-07-03T05:48:59.600Z,26.93
2017-07-03T05:50:09.948Z,28.18
2017-07-03T05:51:20.299Z,29.58
2017-07-03T05:52:30.030Z,30.39
2017-07-03T05:53:40.368Z,30.39
2017-07-03T05:54:50.720Z,31.33
2017-07-03T05:56:01.075Z,31
2017-07-03T05:57:10.804Z,29.72
2017-07-03T05:58:21.181Z,28.73
2017-07-03T05:59:31.522Z,27.94
2017-07-03T06:00:41.562Z,27.36
2017-07-03T06:01:51.960Z,26.94
2017-07-03T06:03:02.313Z,26.52
2017-07-03T06:04:12.679Z,26.31
2017-07-03T06:05:23.021Z,27.49
2017-07-03T06:06:33.374Z,27.94
2017-07-03T06:07:43.745Z,28.23
2017-07-03T06:08:54.102Z,27.87
2017-07-03T06:10:04.454Z,27.59
2017-07-03T06:11:14.175Z,27.34
2017-07-03T06:12:24.526Z,27.89
2017-07-03T06:13:34.922Z,28.31
2017-07-03T06:14:45.286Z,28.3
2017-07-03T06:15:55.322Z,28.35
2017-07-03T06:17:05.374Z,28.53
2017-07-03T06:18:15.719Z,28.68
2017-07-03T06:19:25.748Z,28.6
2017-07-03T06:20:35.785Z,28.45
2017-07-03T06:21:45.821Z,28.12
2017-07-03T06:22:55.864Z,27.9
2017-07-03T06:24:06.210Z,27.66
2017-07-03T06:25:16.622Z,27.49
2017-07-03T06:26:26.973Z,27.19
2017-07-03T06:27:36.745Z,27.06
2017-07-03T06:28:47.091Z,26.91
2017-07-03T06:29:57.133Z,26.96
2017-07-03T06:31:07.524Z,26.99
2017-07-03T06:32:17.867Z,26.94
2017-07-03T06:33:27.918Z,26.96
2017-07-03T06:34:38.268Z,27
2017-07-03T06:35:48.312Z,27.06
2017-07-03T06:36:58.655Z,27.11
2017-07-03T06:38:08.693Z,27.23
2017-07-03T06:39:19.038Z,27.36
2017-07-03T06:40:29.074Z,27.62
2017-07-03T06:41:39.150Z,27.89
2017-07-03T06:42:49.558Z,28.05
2017-07-03T06:43:59.598Z,28.31
2017-07-03T06:45:09.990Z,28.42
2017-07-03T06:46:20.347Z,28.6
2017-07-03T06:47:30.735Z,28.65
2017-07-03T06:48:40.798Z,28.75
2017-07-03T06:49:50.845Z,28.94
2017-07-03T06:51:01.202Z,29.1
2017-07-03T06:52:11.544Z,29.36
2017-07-03T06:53:21.885Z,29.63
2017-07-03T06:54:32.285Z,30.18
2017-07-03T06:55:42.319Z,30.75
2017-07-03T06:56:52.673Z,30.84
2017-07-03T06:58:03.022Z,30.96
2017-07-03T06:59:13.373Z,30.77
2017-07-03T07:00:23.718Z,30.63
2017-07-03T07:01:34.062Z,30.49
2017-07-03T07:02:44.408Z,30.21
2017-07-03T07:03:54.751Z,29.95
2017-07-03T07:05:05.108Z,29.63
2017-07-03T07:06:15.462Z,29.48
2017-07-03T07:07:25.801Z,29.18
2017-07-03T07:08:36.161Z,29.06
2017-07-03T07:09:46.196Z,29.03
2017-07-03T07:10:56.562Z,29.35
2017-07-03T07:12:06.973Z,29.1
2017-07-03T07:13:17.004Z,28.83
2017-07-03T07:14:27.362Z,28.53
2017-07-03T07:15:37.708Z,28.3
2017-07-03T07:16:48.074Z,28.02
2017-07-03T07:17:58.157Z,27.65
2017-07-03T07:19:08.191Z,27.48
2017-07-03T07:20:18.239Z,27.19
2017-07-03T07:21:28.597Z,27.09
2017-07-03T07:22:38.636Z,26.93
2017-07-03T07:23:48.681Z,26.78
2017-07-03T07:24:58.737Z,26.68
2017-07-03T07:26:08.849Z,26.54
2017-07-03T07:27:18.904Z,26.61
2017-07-03T07:28:29.246Z,26.59
2017-07-03T07:29:39.670Z,26.45
2017-07-03T07:30:49.390Z,26.45
2017-07-03T07:31:59.738Z,26.31
2017-07-03T07:33:09.753Z,26.32
2017-07-03T07:34:20.127Z,26.39
2017-07-03T07:35:30.236Z,26.38
2017-07-03T07:36:40.608Z,26.42
2017-07-03T07:37:50.656Z,26.38
2017-07-03T07:39:01.008Z,26.37
2017-07-03T07:40:11.385Z,26.26
2017-07-03T07:41:21.797Z,26.35
2017-07-03T07:42:31.839Z,26.47
2017-07-03T07:43:41.880Z,26.34
2017-07-03T07:44:52.257Z,25.99
2017-07-03T07:46:01.980Z,25.99
2017-07-03T07:47:12.396Z,26.11
2017-07-03T07:48:22.127Z,26.17
2017-07-03T07:49:32.499Z,26.32
2017-07-03T07:50:42.530Z,26.38
2017-07-03T07:51:52.569Z,26.44
2017-07-03T07:53:02.612Z,26.63
2017-07-03T07:54:12.968Z,26.72
2017-07-03T07:55:23.026Z,26.93
2017-07-03T07:56:33.383Z,26.94
2017-07-03T07:57:43.738Z,27.51
2017-07-03T07:58:54.144Z,27.94
2017-07-03T08:00:04.520Z,28.31
2017-07-03T08:01:14.555Z,28.03
2017-07-03T08:02:24.927Z,28.27
2017-07-03T08:03:35.282Z,28.36
2017-07-03T08:04:45.683Z,28.28
2017-07-03T08:05:56.048Z,28.23
2017-07-03T08:07:06.434Z,28.02
2017-07-03T08:08:16.826Z,27.62
2017-07-03T08:09:27.210Z,27.09
2017-07-03T08:10:37.644Z,27
2017-07-03T08:11:47.713Z,26.91
2017-07-03T08:12:58.067Z,27.24
2017-07-03T08:14:07.803Z,27.28
2017-07-03T08:15:18.208Z,27.36
2017-07-03T08:16:28.325Z,27.28
2017-07-03T08:17:38.376Z,27.12
2017-07-03T08:18:48.774Z,27.42
2017-07-03T08:19:59.144Z,27.57
2017-07-03T08:21:09.521Z,27.41
2017-07-03T08:22:19.556Z,27.34
2017-07-03T08:23:29.630Z,27.48
2017-07-03T08:24:40.370Z,27.69
2017-07-03T08:25:50.889Z,27.96
2017-07-03T08:27:01.271Z,28.17
2017-07-03T08:28:11.338Z,28.12
2017-07-03T08:29:21.698Z,28.11
2017-07-03T08:30:31.108Z,28.54
2017-07-03T08:31:41.514Z,28.7
2017-07-03T08:32:51.912Z,28.68
2017-07-03T08:34:02.072Z,28.26
2017-07-03T08:35:12.465Z,28.3
2017-07-03T08:36:22.905Z,28.67
2017-07-03T08:37:33.336Z,28.85
2017-07-03T08:38:43.417Z,29.06
2017-07-03T08:39:53.860Z,29.43
2017-07-03T08:41:04.253Z,29.77
2017-07-03T08:42:14.641Z,29.43
2017-07-03T08:43:25.035Z,28.97
2017-07-03T08:44:35.432Z,28.67
2017-07-03T08:45:45.890Z,28.67
2017-07-03T08:46:56.283Z,28.82
2017-07-03T08:48:06.721Z,28.97
2017-07-03T08:49:17.131Z,28.98
2017-07-03T08:50:27.532Z,28.86
2017-07-03T08:51:38.031Z,28.82
2017-07-03T08:52:48.435Z,28.79
2017-07-03T08:53:58.542Z,28.85
2017-07-03T08:55:08.906Z,28.86
2017-07-03T08:56:19.278Z,29.14
2017-07-03T08:57:29.701Z,29.13
2017-07-03T08:58:39.773Z,29.03
2017-07-03T08:59:50.152Z,29.33
2017-07-03T09:01:00.512Z,29.48
2017-07-03T09:02:10.584Z,29.65
2017-07-03T09:03:21.046Z,29.43
2017-07-03T09:04:31.432Z,29.2
2017-07-03T09:05:41.795Z,29.02
2017-07-03T09:06:51.857Z,28.91
2017-07-03T09:08:02.250Z,28.53
2017-07-03T09:09:12.353Z,28.36
2017-07-03T09:10:22.732Z,28.2
2017-07-03T09:11:33.097Z,28.27
2017-07-03T09:12:43.221Z,28.67
2017-07-03T09:13:53.628Z,29.03
2017-07-03T09:15:03.735Z,29.48
2017-07-03T09:16:14.110Z,30.04
2017-07-03T09:17:24.490Z,30.37
2017-07-03T09:18:34.230Z,30.6
2017-07-03T09:19:44.632Z,30.79
2017-07-03T09:20:54.052Z,30.19
2017-07-03T09:22:04.448Z,29.79
2017-07-03T09:23:14.822Z,29.39
2017-07-03T09:24:24.873Z,28.86
2017-07-03T09:25:34.938Z,28.9
2017-07-03T09:26:45.336Z,28.91
2017-07-03T09:27:55.704Z,28.97
2017-07-03T09:29:06.127Z,29.06
2017-07-03T09:30:16.516Z,29.15
2017-07-03T09:31:26.928Z,29.2
2017-07-03T09:32:37.441Z,29.02
2017-07-03T09:33:47.514Z,29.06
2017-07-03T09:34:57.889Z,29.02
2017-07-03T09:36:08.243Z,28.67
2017-07-03T09:37:18.590Z,28.64
2017-07-03T09:38:29.048Z,28.67
2017-07-03T09:39:38.797Z,28.85
2017-07-03T09:40:49.203Z,28.92
2017-07-03T09:41:59.572Z,29.1
2017-07-03T09:43:09.969Z,29.26
2017-07-03T09:44:20.412Z,29.5
2017-07-03T09:45:30.500Z,29.57
2017-07-03T09:46:40.877Z,29.7
2017-07-03T09:47:50.941Z,29.85
2017-07-03T09:49:01.314Z,30.1
2017-07-03T09:50:11.474Z,29.92
2017-07-03T09:51:21.536Z,29.63
2017-07-03T09:52:31.637Z,29.36
2017-07-03T09:53:41.754Z,29.52
2017-07-03T09:54:52.134Z,30.03
2017-07-03T09:56:02.560Z,30.14
2017-07-03T09:57:12.941Z,30.71
2017-07-03T09:58:23.333Z,30.99
2017-07-03T09:59:33.806Z,31.12
2017-07-03T10:00:44.205Z,31.21
2017-07-03T10:01:54.266Z,31.23
2017-07-03T10:03:04.646Z,31.15
2017-07-03T10:04:15.018Z,31.19
2017-07-03T10:05:25.416Z,31.26
2017-07-03T10:06:35.470Z,31.33
2017-07-03T10:07:45.889Z,31.26
2017-07-03T10:08:56.256Z,31.44
2017-07-03T10:10:06.627Z,31.71
2017-07-03T10:11:16.705Z,32.08
2017-07-03T10:12:27.078Z,32.28
2017-07-03T10:13:37.501Z,32.24
2017-07-03T10:14:47.880Z,32.01
2017-07-03T10:15:58.250Z,31.77
2017-07-03T10:17:08.288Z,31.49
2017-07-03T10:18:18.369Z,31.43
2017-07-03T10:19:28.809Z,31.18
2017-07-03T10:20:39.206Z,31.33
2017-07-03T10:21:49.590Z,31.47
2017-07-03T10:22:59.966Z,31.26
2017-07-03T10:24:10.410Z,31.41
2017-07-03T10:25:20.832Z,31.97
2017-07-03T10:26:31.238Z,32.38
2017-07-03T10:27:41.296Z,32.79
2017-07-03T10:28:51.667Z,32.74
2017-07-03T10:30:02.040Z,32.5
2017-07-03T10:31:12.395Z,32.17
2017-07-03T10:32:22.772Z,31.81
2017-07-03T10:33:33.149Z,31.77
2017-07-03T10:34:43.517Z,31.88
2017-07-03T10:35:53.905Z,32.05
2017-07-03T10:37:04.283Z,31.78
2017-07-03T10:38:14.669Z,32.37
2017-07-03T10:39:25.089Z,32.71
2017-07-03T10:40:35.154Z,32.39
2017-07-03T10:41:45.225Z,32.38
2017-07-03T10:42:55.356Z,32.13
2017-07-03T10:44:05.745Z,31.88
2017-07-03T10:45:15.820Z,32.09
2017-07-03T10:46:26.249Z,32.43
2017-07-03T10:47:36.308Z,32.57
2017-07-03T10:48:46.722Z,32.28
2017-07-03T10:49:57.134Z,32.34
2017-07-03T10:51:07.513Z,32
2017-07-03T10:52:17.895Z,31.45
2017-07-03T10:53:28.258Z,31.01
2017-07-03T10:54:38.365Z,30.7
2017-07-03T10:55:48.845Z,30.7
2017-07-03T10:56:59.227Z,30.73
2017-07-03T10:58:09.588Z,30.42
2017-07-03T10:59:19.987Z,30.4
2017-07-03T11:00:30.373Z,30.13
2017-07-03T11:01:40.743Z,30.04
2017-07-03T11:02:51.170Z,29.73
2017-07-03T11:04:01.549Z,29.48
2017-07-03T11:05:11.913Z,29.4
2017-07-03T11:06:22.340Z,29.43
2017-07-03T11:07:32.471Z,29.69
2017-07-03T11:08:42.863Z,30.26
2017-07-03T11:09:52.919Z,30.63
2017-07-03T11:11:03.290Z,30.79
2017-07-03T11:12:12.801Z,30.59
2017-07-03T11:13:23.190Z,30.03
2017-07-03T11:14:33.563Z,30.03
2017-07-03T11:15:43.652Z,30.1
2017-07-03T11:16:54.037Z,29.92
2017-07-03T11:18:04.458Z,29.92
2017-07-03T11:19:14.828Z,29.98
2017-07-03T11:20:25.207Z,30.06
2017-07-03T11:21:35.580Z,30.25
2017-07-03T11:22:45.949Z,30.32
2017-07-03T11:23:56.374Z,30.4
2017-07-03T11:25:06.751Z,30.49
2017-07-03T11:26:16.522Z,30.49
2017-07-03T11:27:26.902Z,30.44
2017-07-03T11:28:37.264Z,30.11
2017-07-03T11:29:47.677Z,30.45
2017-07-03T11:30:58.053Z,30.63
2017-07-03T11:32:08.095Z,30.73
2017-07-03T11:33:18.482Z,30.75
2017-07-03T11:34:28.557Z,30.06
2017-07-03T11:35:38.650Z,30
2017-07-03T11:36:49.019Z,30.42
2017-07-03T11:37:59.372Z,30.09
2017-07-03T11:39:09.782Z,30.45
2017-07-03T11:40:20.148Z,30.75
2017-07-03T11:41:30.592Z,31.01
2017-07-03T11:42:40.995Z,31.19
2017-07-03T11:43:51.381Z,31.22
2017-07-03T11:45:01.765Z,31.28
2017-07-03T11:46:11.825Z,31.28
2017-07-03T11:47:22.287Z,31.31
2017-07-03T11:48:32.651Z,31.21
2017-07-03T11:49:42.750Z,31.23
2017-07-03T11:50:52.839Z,31.04
2017-07-03T11:52:03.278Z,30.99
2017-07-03T11:53:13.375Z,30.97
2017-07-03T11:54:23.759Z,30.77
2017-07-03T11:55:34.135Z,30.75
2017-07-03T11:56:44.534Z,30.7
2017-07-03T11:57:54.916Z,30.7
2017-07-03T11:59:05.617Z,30.73
2017-07-03T12:00:15.990Z,30.77
2017-07-03T12:01:26.420Z,30.84
2017-07-03T12:02:36.800Z,31
2017-07-03T12:03:46.958Z,31.36
2017-07-03T12:04:57.074Z,31.45
2017-07-03T12:06:07.445Z,31.63
2017-07-03T12:07:17.508Z,31.77
2017-07-03T12:08:27.891Z,31.91
2017-07-03T12:09:37.945Z,31.95
2017-07-03T12:10:48.377Z,32.1
2017-07-03T12:11:58.742Z,32.31
2017-07-03T12:13:09.127Z,32.56
2017-07-03T12:14:19.503Z,32.72
2017-07-03T12:15:29.944Z,32.84
2017-07-03T12:16:40.378Z,32.86
2017-07-03T12:17:50.789Z,32.71
2017-07-03T12:19:00.857Z,32.45
2017-07-03T12:20:11.273Z,32.38
2017-07-03T12:21:21.727Z,32.47
2017-07-03T12:22:32.157Z,32.43
2017-07-03T12:23:42.542Z,31.86
2017-07-03T12:24:52.937Z,31.53
2017-07-03T12:26:03.312Z,31.62
2017-07-03T12:27:13.366Z,31.88
2017-07-03T12:28:23.526Z,32.24
2017-07-03T12:29:33.914Z,32.17
2017-07-03T12:30:44.282Z,31.88
2017-07-03T12:31:54.672Z,31.95
2017-07-03T12:33:05.086Z,32.08
2017-07-03T12:34:15.152Z,31.91
2017-07-03T12:35:25.573Z,31.98
2017-07-03T12:36:35.320Z,32.27
2017-07-03T12:37:45.398Z,32.52
2017-07-03T12:38:55.453Z,32.62
2017-07-03T12:40:05.877Z,32.83
2017-07-03T12:41:16.253Z,33.16
2017-07-03T12:42:26.304Z,33.44
2017-07-03T12:43:36.684Z,33.62
2017-07-03T12:44:46.754Z,33.84
2017-07-03T12:45:57.218Z,33.83
2017-07-03T12:47:07.598Z,33.73
2017-07-03T12:48:17.708Z,33.74
2017-07-03T12:49:28.095Z,33.77
2017-07-03T12:50:38.471Z,33.48
2017-07-03T12:51:48.903Z,33.36
2017-07-03T12:52:59.296Z,33.32
2017-07-03T12:54:09.680Z,33.2
2017-07-03T12:55:20.084Z,33.13
2017-07-03T12:56:30.464Z,33.21
2017-07-03T12:57:40.919Z,33.29
2017-07-03T12:58:51.334Z,33.48
2017-07-03T13:00:01.082Z,33.55
2017-07-03T13:01:11.475Z,33.61
2017-07-03T13:02:21.840Z,33.41
2017-07-03T13:03:31.877Z,32.96
2017-07-03T13:04:43.061Z,32.81
2017-07-03T13:05:53.486Z,32.49
2017-07-03T13:07:03.565Z,32.38
2017-07-03T13:08:13.624Z,32.08
2017-07-03T13:09:24.170Z,31.44
2017-07-03T13:10:34.265Z,31.38
2017-07-03T13:11:44.651Z,31.41
2017-07-03T13:12:54.378Z,31.03
2017-07-03T13:14:04.777Z,31.04
2017-07-03T13:15:15.202Z,31.16
2017-07-03T13:16:25.248Z,31.01
2017-07-03T13:17:35.611Z,31.22
2017-07-03T13:18:46.002Z,31.36
2017-07-03T13:19:56.436Z,31.47
2017-07-03T13:21:06.868Z,31.43
2017-07-03T13:22:17.288Z,31.67
2017-07-03T13:23:27.665Z,31.71
2017-07-03T13:24:38.043Z,31.86
2017-07-03T13:25:48.446Z,31.81
2017-07-03T13:26:58.895Z,31.78
2017-07-03T13:28:08.971Z,31.87
2017-07-03T13:29:19.010Z,31.95
2017-07-03T13:30:29.054Z,31.91
2017-07-03T13:31:39.106Z,31.87
2017-07-03T13:32:49.680Z,31.77
2017-07-03T13:34:00.073Z,31.67
2017-07-03T13:35:10.468Z,31.8
2017-07-03T13:36:20.524Z,31.95
2017-07-03T13:37:30.577Z,32.08
2017-07-03T13:38:40.989Z,32.05
2017-07-03T13:39:51.401Z,32.01
2017-07-03T13:41:01.786Z,31.87
2017-07-03T13:42:12.166Z,31.81
2017-07-03T13:43:22.224Z,31.97
2017-07-03T13:44:32.661Z,32.1
2017-07-03T13:45:43.031Z,32.1
2017-07-03T13:46:53.404Z,32.31
2017-07-03T13:48:03.786Z,32.47
2017-07-03T13:49:13.828Z,32.67
2017-07-03T13:50:24.391Z,32.83
2017-07-03T13:51:34.793Z,33.03
2017-07-03T13:52:44.858Z,33.09
2017-07-03T13:53:55.230Z,33.17
2017-07-03T13:55:05.055Z,33.17
2017-07-03T13:56:15.503Z,33.03
2017-07-03T13:57:25.581Z,32.84
2017-07-03T13:58:35.990Z,32.72
2017-07-03T13:59:46.365Z,32.49
2017-07-03T14:00:56.771Z,32.37
2017-07-03T14:02:07.316Z,32.19
2017-07-03T14:03:17.850Z,32.05
2017-07-03T14:04:28.255Z,31.93
2017-07-03T14:05:38.621Z,31.78
2017-07-03T14:06:48.652Z,31.81
2017-07-03T14:07:59.078Z,31.72
2017-07-03T14:09:09.489Z,31.74
2017-07-03T14:10:19.930Z,31.68
2017-07-03T14:11:29.994Z,31.93
2017-07-03T14:12:40.053Z,31.9
2017-07-03T14:13:50.480Z,31.98
2017-07-03T14:15:00.566Z,31.91
2017-07-03T14:16:10.999Z,31.91
2017-07-03T14:17:21.117Z,31.8
2017-07-03T14:18:31.519Z,31.81
2017-07-03T14:19:41.924Z,31.77
2017-07-03T14:20:52.059Z,31.7
2017-07-03T14:22:02.414Z,31.75
2017-07-03T14:23:12.161Z,31.71
2017-07-03T14:24:22.222Z,31.45
2017-07-03T14:25:32.652Z,31.26
2017-07-03T14:26:43.020Z,30.73
2017-07-03T14:27:53.385Z,30.81
2017-07-03T14:29:03.469Z,30.99
2017-07-03T14:30:13.570Z,31.25
2017-07-03T14:31:24.000Z,30.89
2017-07-03T14:32:34.087Z,31.1
2017-07-03T14:33:44.142Z,31.07
2017-07-03T14:34:54.545Z,31.3
2017-07-03T14:36:04.590Z,31.47
2017-07-03T14:37:15.000Z,31.58
2017-07-03T14:38:25.407Z,31.63
2017-07-03T14:39:35.812Z,31.67
2017-07-03T14:40:46.203Z,31.59
2017-07-03T14:41:56.564Z,31.81
2017-07-03T14:43:06.680Z,31.95
2017-07-03T14:44:16.756Z,31.82
2017-07-03T14:45:27.133Z,31.98
2017-07-03T14:46:37.216Z,31.81
2017-07-03T14:47:47.322Z,31.86
2017-07-03T14:48:57.678Z,31.78
2017-07-03T14:50:07.469Z,31.95
2017-07-03T14:51:17.851Z,31.94
2017-07-03T14:52:28.247Z,31.94
2017-07-03T14:53:38.695Z,31.9
2017-07-03T14:54:49.156Z,32.15
2017-07-03T14:55:59.529Z,32.32
2017-07-03T14:57:09.591Z,32.09
2017-07-03T14:58:20.043Z,31.9
2017-07-03T14:59:30.410Z,31.65
2017-07-03T15:00:40.460Z,31.47
2017-07-03T15:01:50.837Z,31.34
2017-07-03T15:03:00.912Z,31.06
2017-07-03T15:04:11.322Z,30.85
2017-07-03T15:05:21.693Z,30.52
2017-07-03T15:06:31.829Z,30.31
2017-07-03T15:07:42.218Z,30.09
2017-07-03T15:08:52.279Z,29.94
2017-07-03T15:10:02.662Z,29.82
2017-07-03T15:11:12.695Z,29.76
2017-07-03T15:12:22.766Z,29.7
2017-07-03T15:13:32.843Z,29.61
2017-07-03T15:14:43.225Z,29.61
2017-07-03T15:15:53.619Z,29.65
2017-07-03T15:17:03.672Z,29.57
2017-07-03T15:18:14.083Z,29.67
2017-07-03T15:19:24.469Z,29.73
2017-07-03T15:20:34.861Z,29.87
2017-07-03T15:21:44.588Z,30.04
2017-07-03T15:22:54.950Z,30.18
2017-07-03T15:24:05.366Z,30.22
2017-07-03T15:25:15.446Z,30.28
2017-07-03T15:26:25.818Z,30.25
2017-07-03T15:27:36.208Z,30.29
2017-07-03T15:28:46.575Z,30.31
2017-07-03T15:29:57.021Z,30.22
2017-07-03T15:31:07.377Z,30.21
2017-07-03T15:32:17.760Z,30.09
2017-07-03T15:33:28.131Z,30
2017-07-03T15:34:38.532Z,29.97
2017-07-03T15:35:48.963Z,29.88
2017-07-03T15:36:59.005Z,29.85
2017-07-03T15:38:09.396Z,29.75
2017-07-03T15:39:19.847Z,29.84